createdAt,value
2023-05-20T00:00:14.788Z,22.00
2023-05-20T00:02:42.862Z,22.30
2023-05-20T00:05:11.369Z,19.80
2023-05-20T00:07:39.374Z,23.37
2023-05-20T00:10:09.585Z,21.40
2023-05-20T00:12:39.196Z,21.33
2023-05-20T00:15:12.036Z,19.67
2023-05-20T00:17:40.218Z,20.67
2023-05-20T00:20:09.508Z,21.23
2023-05-20T00:22:37.537Z,20.70
2023-05-20T00:25:06.296Z,20.80
2023-05-20T00:27:34.289Z,21.20
2023-05-20T00:30:02.330Z,20.07
2023-05-20T00:32:31.767Z,20.37
2023-05-20T00:35:00.684Z,20.17
2023-05-20T00:37:29.142Z,22.53
2023-05-20T00:39:59.967Z,21.13
2023-05-20T00:42:30.089Z,21.27
2023-05-20T00:44:58.166Z,22.97
2023-05-20T00:47:30.182Z,19.10
2023-05-20T00:50:01.109Z,18.83
2023-05-20T00:52:31.855Z,21.27
2023-05-20T00:55:00.595Z,21.00
2023-05-20T00:57:28.761Z,21.97
2023-05-20T00:59:57.093Z,19.73
2023-05-20T01:02:25.734Z,26.07
2023-05-20T01:04:56.538Z,23.70
2023-05-20T01:07:27.002Z,24.10
2023-05-20T01:09:56.190Z,21.23
2023-05-20T01:12:29.546Z,25.87
2023-05-20T01:15:00.983Z,21.90
2023-05-20T01:17:33.359Z,21.77
2023-05-20T01:20:02.493Z,22.93
2023-05-20T01:22:32.139Z,23.43
2023-05-20T01:25:00.163Z,23.90
2023-05-20T01:27:30.288Z,26.60
2023-05-20T01:29:58.744Z,23.40
2023-05-20T01:32:32.979Z,24.93
2023-05-20T01:35:01.529Z,26.27
2023-05-20T01:37:32.708Z,21.87
2023-05-20T01:40:01.671Z,26.00
2023-05-20T01:42:30.328Z,25.37
2023-05-20T01:45:00.053Z,25.47
2023-05-20T01:47:28.143Z,26.43
2023-05-20T01:49:56.202Z,26.50
2023-05-20T01:52:24.898Z,25.60
2023-05-20T01:54:54.251Z,26.23
2023-05-20T01:57:23.502Z,28.07
2023-05-20T01:59:51.813Z,27.23
2023-05-20T02:02:19.896Z,29.10
2023-05-20T02:04:49.725Z,28.83
2023-05-20T02:07:18.750Z,28.80
2023-05-20T02:09:47.271Z,32.73
2023-05-20T02:12:17.434Z,31.93
2023-05-20T02:14:48.454Z,30.87
2023-05-20T02:17:17.364Z,32.63
2023-05-20T02:19:45.713Z,32.37
2023-05-20T02:22:13.955Z,29.03
2023-05-20T02:24:43.377Z,29.50
2023-05-20T02:27:11.919Z,31.03
2023-05-20T02:29:41.364Z,33.97
2023-05-20T02:32:09.757Z,35.40
2023-05-20T02:34:37.746Z,33.67
2023-05-20T02:37:06.076Z,34.10
2023-05-20T02:39:34.059Z,34.60
2023-05-20T02:42:02.329Z,31.30
2023-05-20T02:44:32.410Z,32.63
2023-05-20T02:47:01.785Z,31.20
2023-05-20T02:49:29.814Z,32.13
2023-05-20T02:51:57.802Z,31.97
2023-05-20T02:54:25.785Z,31.00
2023-05-20T02:56:53.772Z,29.63
2023-05-20T02:59:21.785Z,29.77
2023-05-20T03:01:49.876Z,28.30
2023-05-20T03:04:21.998Z,25.43
2023-05-20T03:06:52.131Z,27.73
2023-05-20T03:09:20.656Z,28.70
2023-05-20T03:11:49.900Z,26.67
2023-05-20T03:14:17.915Z,26.63
2023-05-20T03:16:45.942Z,26.60
2023-05-20T03:19:13.977Z,27.07
2023-05-20T03:21:44.356Z,29.97
2023-05-20T03:24:12.337Z,28.27
2023-05-20T03:26:43.161Z,25.37
2023-05-20T03:29:11.820Z,23.53
2023-05-20T03:31:39.982Z,23.23
2023-05-20T03:34:08.837Z,22.07
2023-05-20T03:36:37.357Z,23.17
2023-05-20T03:39:07.097Z,23.40
2023-05-20T03:41:36.216Z,23.07
2023-05-20T03:44:05.662Z,26.03
2023-05-20T03:46:34.383Z,25.03
2023-05-20T03:49:03.105Z,23.97
2023-05-20T03:51:31.196Z,22.77
2023-05-20T03:53:59.717Z,22.83
2023-05-20T03:56:29.117Z,25.10
2023-05-20T03:58:57.128Z,27.30
2023-05-20T04:01:25.821Z,24.27
2023-05-20T04:03:53.916Z,25.67
2023-05-20T04:06:22.538Z,24.50
2023-05-20T04:08:50.998Z,24.83
2023-05-20T04:11:19.037Z,24.53
2023-05-20T04:13:51.289Z,25.17
2023-05-20T04:16:20.002Z,28.30
2023-05-20T04:18:48.285Z,27.30
2023-05-20T04:21:16.373Z,25.03
2023-05-20T04:23:44.373Z,27.83
2023-05-20T04:26:12.925Z,27.93
2023-05-20T04:28:41.978Z,31.20
2023-05-20T04:31:11.419Z,28.87
2023-05-20T04:33:39.433Z,28.93
2023-05-20T04:36:12.132Z,29.43
2023-05-20T04:38:40.304Z,27.77
2023-05-20T04:41:09.360Z,28.70
2023-05-20T04:43:39.632Z,26.33
2023-05-20T04:46:09.593Z,28.90
2023-05-20T04:48:39.363Z,25.73
2023-05-20T04:51:08.718Z,24.20
2023-05-20T04:53:37.052Z,25.10
2023-05-20T04:56:05.905Z,24.70
2023-05-20T04:58:33.990Z,22.43
2023-05-20T05:01:02.685Z,25.00
2023-05-20T05:03:31.443Z,25.10
2023-05-20T05:06:01.214Z,23.43
2023-05-20T05:08:29.233Z,23.50
2023-05-20T05:10:57.251Z,25.73
2023-05-20T05:13:25.262Z,24.10
2023-05-20T05:16:00.116Z,24.03
2023-05-20T05:18:28.584Z,23.27
2023-05-20T05:21:05.088Z,25.83
2023-05-20T05:23:34.076Z,22.70
2023-05-20T05:26:02.167Z,27.63
2023-05-20T05:28:32.338Z,24.33
2023-05-20T05:31:02.170Z,27.30
2023-05-20T05:33:30.456Z,24.30
2023-05-20T05:35:59.252Z,25.83
2023-05-20T05:38:28.950Z,24.83
2023-05-20T05:41:00.003Z,27.10
2023-05-20T05:43:28.006Z,27.03
2023-05-20T05:45:56.020Z,28.53
2023-05-20T05:48:24.029Z,25.90
2023-05-20T05:50:52.006Z,25.87
2023-05-20T05:53:20.076Z,29.67
2023-05-20T05:55:49.518Z,25.43
2023-05-20T05:58:17.733Z,29.07
2023-05-20T06:00:45.871Z,29.33
2023-05-20T06:03:14.025Z,30.50
2023-05-20T06:05:45.933Z,29.80
2023-05-20T06:08:15.643Z,27.03
2023-05-20T06:10:47.926Z,28.50
2023-05-20T06:13:17.440Z,26.37
2023-05-20T06:15:46.471Z,27.50
2023-05-20T06:18:14.521Z,31.07
2023-05-20T06:20:42.508Z,27.60
2023-05-20T06:23:10.626Z,29.50
2023-05-20T06:25:42.071Z,27.53
2023-05-20T06:28:10.495Z,27.53
2023-05-20T06:30:42.192Z,28.63
2023-05-20T06:33:12.788Z,33.10
2023-05-20T06:35:40.840Z,28.93
2023-05-20T06:38:08.970Z,29.63
2023-05-20T06:40:38.935Z,30.23
2023-05-20T06:43:07.264Z,32.10
2023-05-20T06:45:35.448Z,27.87
2023-05-20T06:48:05.366Z,28.97
2023-05-20T06:50:33.380Z,31.07
2023-05-20T06:53:01.497Z,26.90
2023-05-20T06:55:29.525Z,28.73
2023-05-20T06:57:57.882Z,28.83
2023-05-20T07:00:26.058Z,31.70
2023-05-20T07:02:54.154Z,28.60
2023-05-20T07:05:24.370Z,29.10
2023-05-20T07:07:52.400Z,28.60
2023-05-20T07:10:20.482Z,33.57
2023-05-20T07:12:48.577Z,27.97
2023-05-20T07:15:17.915Z,30.63
2023-05-20T07:17:46.077Z,29.63
2023-05-20T07:20:15.389Z,27.50
2023-05-20T07:22:45.172Z,29.73
2023-05-20T07:25:13.323Z,29.47
2023-05-20T07:27:41.451Z,25.73
2023-05-20T07:30:11.068Z,29.80
2023-05-20T07:32:39.175Z,29.23
2023-05-20T07:35:07.772Z,28.13
2023-05-20T07:37:35.969Z,26.17
2023-05-20T07:40:07.402Z,24.27
2023-05-20T07:42:35.448Z,25.33
2023-05-20T07:45:03.573Z,24.90
2023-05-20T07:47:33.375Z,23.50
2023-05-20T07:50:01.516Z,22.30
2023-05-20T07:52:30.983Z,23.17
2023-05-20T07:55:01.958Z,22.97
2023-05-20T07:57:31.361Z,22.03
2023-05-20T08:00:01.784Z,21.37
2023-05-20T08:02:32.571Z,22.23
2023-05-20T08:05:00.942Z,21.27
2023-05-20T08:07:28.942Z,23.87
2023-05-20T08:09:57.012Z,21.97
2023-05-20T08:12:24.997Z,22.03
2023-05-20T08:14:55.298Z,23.10
2023-05-20T08:17:23.393Z,22.63
2023-05-20T08:19:51.480Z,25.03
2023-05-20T08:22:19.754Z,23.10
2023-05-20T08:24:47.859Z,25.00
2023-05-20T08:27:15.867Z,24.93
2023-05-20T08:29:46.349Z,22.93
2023-05-20T08:32:18.232Z,26.07
2023-05-20T08:34:46.234Z,23.57
2023-05-20T08:37:14.260Z,23.40
2023-05-20T08:39:42.237Z,25.00
2023-05-20T08:42:11.686Z,23.53
2023-05-20T08:44:41.186Z,29.33
2023-05-20T08:47:10.015Z,26.43
2023-05-20T08:49:40.162Z,23.57
2023-05-20T08:52:12.489Z,25.80
2023-05-20T08:54:46.109Z,27.90
2023-05-20T08:57:14.773Z,23.73
2023-05-20T08:59:45.082Z,28.57
2023-05-20T09:02:13.664Z,32.90
2023-05-20T09:04:43.208Z,27.80
2023-05-20T09:07:11.330Z,32.03
2023-05-20T09:09:39.338Z,28.47
2023-05-20T09:12:08.797Z,29.77
2023-05-20T09:14:36.844Z,31.97
2023-05-20T09:17:08.312Z,32.00
2023-05-20T09:19:36.612Z,26.00
2023-05-20T09:22:07.322Z,28.23
2023-05-20T09:24:35.393Z,27.97
2023-05-20T09:27:03.440Z,28.67
2023-05-20T09:29:34.981Z,31.30
2023-05-20T09:32:04.550Z,31.23
2023-05-20T09:34:32.764Z,31.03
2023-05-20T09:37:01.482Z,26.00
2023-05-20T09:39:37.211Z,28.33
2023-05-20T09:42:11.287Z,27.30
2023-05-20T09:44:41.146Z,28.33
2023-05-20T09:47:10.121Z,27.93
2023-05-20T09:49:39.967Z,27.97
2023-05-20T09:52:08.737Z,28.03
2023-05-20T09:54:40.470Z,30.40
2023-05-20T09:57:11.139Z,28.33
2023-05-20T09:59:39.542Z,31.27
2023-05-20T10:02:08.170Z,26.03
2023-05-20T10:04:40.906Z,30.33
2023-05-20T10:07:37.946Z,27.20
2023-05-20T10:10:23.511Z,28.03
2023-05-20T10:13:04.172Z,27.07
2023-05-20T10:15:44.783Z,27.83
2023-05-20T10:18:20.985Z,25.87
2023-05-20T10:20:52.536Z,30.67
2023-05-20T10:23:24.434Z,28.90
2023-05-20T10:25:54.478Z,32.33
2023-05-20T10:28:32.993Z,27.63
2023-05-20T10:31:01.708Z,25.37
2023-05-20T10:33:30.548Z,26.10
2023-05-20T10:36:00.562Z,27.97
2023-05-20T10:38:28.599Z,25.73
2023-05-20T10:41:09.434Z,27.93
2023-05-20T10:43:37.483Z,27.30
2023-05-20T10:46:10.456Z,23.93
2023-05-20T10:48:45.821Z,24.70
2023-05-20T10:51:17.030Z,25.03
2023-05-20T10:53:47.720Z,26.93
2023-05-20T10:56:21.545Z,26.23
2023-05-20T10:58:50.198Z,23.97
2023-05-20T11:01:19.149Z,28.07
2023-05-20T11:03:48.257Z,26.47
2023-05-20T11:06:20.779Z,24.77
2023-05-20T11:08:50.659Z,29.40
2023-05-20T11:11:20.118Z,24.20
2023-05-20T11:13:52.274Z,23.77
2023-05-20T11:16:23.072Z,26.10
2023-05-20T11:18:51.588Z,27.03
2023-05-20T11:21:20.376Z,25.03
2023-05-20T11:23:48.427Z,24.13
2023-05-20T11:26:16.666Z,24.20
2023-05-20T11:28:46.561Z,23.80
2023-05-20T11:31:14.710Z,22.93
2023-05-20T11:33:44.469Z,20.57
2023-05-20T11:36:26.923Z,21.40
2023-05-20T11:38:56.433Z,22.57
2023-05-20T11:41:25.584Z,21.47
2023-05-20T11:43:59.195Z,20.73
2023-05-20T11:46:27.614Z,22.93
2023-05-20T11:48:56.306Z,25.73
2023-05-20T11:51:26.103Z,21.23
2023-05-20T11:53:54.259Z,19.50
2023-05-20T11:56:22.627Z,21.33
2023-05-20T11:58:50.831Z,20.90
2023-05-20T12:01:22.840Z,21.33
2023-05-20T12:03:51.706Z,18.37
2023-05-20T12:06:20.179Z,20.10
2023-05-20T12:08:48.519Z,16.73
2023-05-20T12:11:16.852Z,17.47
2023-05-20T12:13:44.888Z,19.40
2023-05-20T12:16:13.233Z,18.97
2023-05-20T12:18:45.812Z,18.40
2023-05-20T12:21:14.176Z,19.30
2023-05-20T12:23:42.163Z,19.00
2023-05-20T12:26:13.091Z,20.23
2023-05-20T12:28:41.257Z,18.77
2023-05-20T12:31:11.492Z,18.23
2023-05-20T12:33:39.842Z,20.13
2023-05-20T12:36:09.384Z,19.33
2023-05-20T12:38:37.419Z,18.10
2023-05-20T12:41:09.419Z,18.80
2023-05-20T12:43:37.929Z,18.10
2023-05-20T12:46:06.879Z,18.00
2023-05-20T12:48:35.000Z,18.10
2023-05-20T12:51:03.030Z,17.83
2023-05-20T12:53:32.413Z,18.23
2023-05-20T12:56:01.111Z,20.07
2023-05-20T12:58:30.424Z,16.60
2023-05-20T13:00:59.744Z,16.47
2023-05-20T13:03:28.113Z,17.23
2023-05-20T13:05:56.089Z,16.63
2023-05-20T13:08:24.438Z,17.17
2023-05-20T13:10:54.618Z,17.30
2023-05-20T13:13:22.745Z,18.57
2023-05-20T13:15:51.370Z,18.67
2023-05-20T13:18:19.964Z,17.83
2023-05-20T13:20:50.245Z,16.97
2023-05-20T13:23:18.265Z,17.43
2023-05-20T13:25:46.325Z,20.63
2023-05-20T13:28:18.917Z,17.20
2023-05-20T13:30:47.059Z,16.67
2023-05-20T13:33:15.122Z,19.17
2023-05-20T13:35:43.152Z,16.83
2023-05-20T13:38:11.242Z,17.13
2023-05-20T13:40:39.335Z,17.37
2023-05-20T13:43:07.439Z,17.87
2023-05-20T13:45:37.027Z,19.50
2023-05-20T13:48:05.600Z,15.97
2023-05-20T13:50:33.896Z,17.40
2023-05-20T13:53:02.071Z,17.20
2023-05-20T13:55:32.837Z,16.60
2023-05-20T13:58:01.354Z,17.00
2023-05-20T14:00:29.374Z,17.03
2023-05-20T14:03:00.788Z,16.77
2023-05-20T14:05:28.894Z,15.20
2023-05-20T14:07:56.965Z,15.77
2023-05-20T14:10:24.999Z,17.03
2023-05-20T14:12:54.195Z,15.27
2023-05-20T14:15:22.215Z,17.40
2023-05-20T14:17:53.172Z,14.90
2023-05-20T14:20:22.736Z,15.87
2023-05-20T14:22:50.788Z,15.27
2023-05-20T14:25:18.943Z,15.43
2023-05-20T14:27:47.131Z,18.47
2023-05-20T14:30:16.802Z,16.03
2023-05-20T14:32:44.866Z,14.70
2023-05-20T14:35:12.894Z,15.10
2023-05-20T14:37:44.280Z,15.00
2023-05-20T14:40:13.098Z,17.03
2023-05-20T14:42:41.630Z,15.10
2023-05-20T14:45:10.995Z,13.80
2023-05-20T14:47:40.190Z,14.83
2023-05-20T14:50:08.879Z,14.73
2023-05-20T14:52:36.943Z,18.13
2023-05-20T14:55:08.255Z,13.87
2023-05-20T14:57:36.301Z,13.10
2023-05-20T15:00:05.457Z,14.27
2023-05-20T15:02:33.666Z,13.33
2023-05-20T15:05:01.776Z,14.67
2023-05-20T15:07:30.365Z,13.20
2023-05-20T15:10:01.260Z,13.83
2023-05-20T15:12:30.778Z,13.90
2023-05-20T15:14:58.762Z,13.43
2023-05-20T15:17:26.823Z,13.53
2023-05-20T15:19:54.834Z,12.83
2023-05-20T15:22:22.873Z,12.33
2023-05-20T15:24:51.042Z,12.13
2023-05-20T15:27:19.152Z,12.73
2023-05-20T15:29:49.568Z,14.27
2023-05-20T15:32:20.871Z,13.17
2023-05-20T15:34:49.050Z,13.00
2023-05-20T15:37:17.300Z,12.80
2023-05-20T15:39:45.313Z,12.40
2023-05-20T15:42:13.958Z,14.33
2023-05-20T15:44:42.000Z,12.70
2023-05-20T15:47:11.625Z,12.77
2023-05-20T15:49:42.142Z,13.40
2023-05-20T15:52:10.381Z,11.97
2023-05-20T15:54:38.438Z,13.07
2023-05-20T15:57:06.811Z,12.00
2023-05-20T15:59:34.840Z,11.80
2023-05-20T16:02:02.949Z,15.00
2023-05-20T16:04:32.537Z,14.50
2023-05-20T16:07:01.239Z,12.70
2023-05-20T16:09:31.204Z,15.13
2023-05-20T16:11:59.309Z,12.60
2023-05-20T16:14:27.275Z,13.77
2023-05-20T16:16:55.276Z,12.53
2023-05-20T16:19:23.418Z,13.50
2023-05-20T16:21:52.889Z,13.43
2023-05-20T16:24:20.887Z,13.33
2023-05-20T16:26:51.741Z,13.10
2023-05-20T16:29:22.127Z,14.03
2023-05-20T16:31:53.136Z,14.17
2023-05-20T16:34:21.808Z,12.83
2023-05-20T16:36:52.478Z,12.57
2023-05-20T16:39:21.863Z,12.00
2023-05-20T16:41:49.856Z,12.17
2023-05-20T16:44:18.872Z,12.67
2023-05-20T16:46:47.222Z,12.00
2023-05-20T16:49:15.352Z,13.60
2023-05-20T16:51:43.450Z,12.47
2023-05-20T16:54:11.498Z,12.60
2023-05-20T16:56:41.204Z,11.90
2023-05-20T16:59:09.213Z,11.60
2023-05-20T17:01:39.287Z,11.77
2023-05-20T17:04:07.463Z,11.67
2023-05-20T17:06:35.924Z,11.80
2023-05-20T17:09:04.746Z,11.87
2023-05-20T17:11:32.868Z,12.00
2023-05-20T17:14:03.000Z,12.50
2023-05-20T17:16:31.286Z,11.20
2023-05-20T17:19:01.324Z,10.63
2023-05-20T17:21:29.355Z,11.27
2023-05-20T17:23:57.384Z,11.30
2023-05-20T17:26:25.873Z,12.60
2023-05-20T17:28:53.930Z,12.60
2023-05-20T17:31:24.956Z,13.20
2023-05-20T17:33:52.980Z,11.27
2023-05-20T17:36:22.468Z,10.37
2023-05-20T17:38:53.246Z,11.23
2023-05-20T17:41:21.832Z,12.87
2023-05-20T17:43:52.296Z,11.30
2023-05-20T17:46:20.367Z,12.23
2023-05-20T17:48:52.459Z,12.03
2023-05-20T17:51:20.794Z,11.30
2023-05-20T17:53:48.802Z,9.90
2023-05-20T17:56:16.939Z,12.23
2023-05-20T17:58:45.746Z,9.80
2023-05-20T18:01:15.023Z,10.53
2023-05-20T18:03:43.237Z,10.70
2023-05-20T18:06:12.823Z,10.27
2023-05-20T18:08:42.482Z,10.07
2023-05-20T18:11:13.059Z,10.33
2023-05-20T18:13:41.049Z,9.40
2023-05-20T18:16:09.142Z,9.20
2023-05-20T18:18:37.220Z,9.77
2023-05-20T18:21:07.712Z,9.07
2023-05-20T18:23:38.637Z,9.33
2023-05-20T18:26:09.118Z,10.17
2023-05-20T18:28:37.183Z,9.23
2023-05-20T18:31:05.398Z,9.57
2023-05-20T18:33:33.486Z,10.83
2023-05-20T18:36:01.643Z,11.27
2023-05-20T18:38:29.667Z,10.07
2023-05-20T18:40:59.047Z,10.23
2023-05-20T18:43:27.474Z,10.13
2023-05-20T18:45:55.862Z,10.67
2023-05-20T18:48:27.044Z,9.67
2023-05-20T18:50:55.648Z,11.27
2023-05-20T18:53:23.831Z,10.57
2023-05-20T18:55:52.338Z,10.43
2023-05-20T18:58:22.004Z,10.10
2023-05-20T19:00:53.042Z,9.90
2023-05-20T19:03:21.260Z,10.00
2023-05-20T19:05:49.314Z,10.10
2023-05-20T19:08:17.430Z,9.70
2023-05-20T19:10:45.645Z,9.90
2023-05-20T19:13:13.657Z,9.53
2023-05-20T19:15:43.020Z,9.73
2023-05-20T19:18:11.386Z,9.60
2023-05-20T19:20:39.688Z,9.47
2023-05-20T19:23:07.707Z,10.37
2023-05-20T19:25:35.907Z,9.93
2023-05-20T19:28:04.366Z,10.27
2023-05-20T19:30:32.565Z,10.20
2023-05-20T19:33:05.590Z,11.53
2023-05-20T19:35:34.434Z,9.50
2023-05-20T19:38:04.867Z,9.93
2023-05-20T19:40:33.221Z,10.03
2023-05-20T19:43:01.261Z,10.33
2023-05-20T19:45:30.854Z,10.03
2023-05-20T19:47:59.293Z,10.27
2023-05-20T19:50:28.673Z,10.87
2023-05-20T19:52:56.715Z,10.27
2023-05-20T19:55:24.740Z,10.20
2023-05-20T19:57:53.587Z,9.83
2023-05-20T20:00:21.906Z,10.50
2023-05-20T20:02:52.870Z,11.00
2023-05-20T20:05:32.027Z,11.37
2023-05-20T20:08:01.497Z,11.33
2023-05-20T20:10:30.921Z,11.37
2023-05-20T20:12:58.953Z,11.57
2023-05-20T20:15:27.120Z,10.57
2023-05-20T20:17:55.273Z,10.83
2023-05-20T20:20:27.858Z,11.87
2023-05-20T20:22:56.398Z,11.50
2023-05-20T20:25:34.062Z,11.73
2023-05-20T20:28:04.538Z,11.50
2023-05-20T20:30:32.572Z,11.10
2023-05-20T20:33:01.282Z,11.30
2023-05-20T20:35:29.361Z,11.67
2023-05-20T20:37:57.429Z,11.80
2023-05-20T20:40:30.591Z,12.00
2023-05-20T20:42:58.636Z,11.93
2023-05-20T20:45:26.625Z,12.17
2023-05-20T20:47:56.062Z,12.33
2023-05-20T20:50:24.165Z,11.80
2023-05-20T20:52:52.168Z,12.70
2023-05-20T20:55:20.634Z,11.93
2023-05-20T20:57:51.144Z,12.57
2023-05-20T21:00:21.130Z,12.53
2023-05-20T21:02:51.942Z,12.80
2023-05-20T21:05:21.365Z,12.60
2023-05-20T21:07:52.572Z,12.47
2023-05-20T21:10:20.688Z,12.87
2023-05-20T21:12:53.103Z,12.80
2023-05-20T21:15:21.550Z,11.93
2023-05-20T21:17:50.194Z,14.00
2023-05-20T21:20:21.307Z,13.80
2023-05-20T21:22:49.872Z,12.20
2023-05-20T21:25:18.079Z,13.00
2023-05-20T21:27:46.156Z,12.73
2023-05-20T21:30:17.304Z,13.40
2023-05-20T21:32:45.453Z,11.87
2023-05-20T21:35:15.948Z,13.60
2023-05-20T21:37:44.017Z,11.77
2023-05-20T21:40:14.203Z,12.60
2023-05-20T21:42:42.206Z,12.80
2023-05-20T21:45:11.171Z,13.03
2023-05-20T21:47:40.625Z,13.00
2023-05-20T21:50:09.590Z,13.13
2023-05-20T21:52:39.682Z,13.03
2023-05-20T21:55:08.917Z,13.77
2023-05-20T21:57:36.959Z,13.73
2023-05-20T22:00:09.835Z,14.13
2023-05-20T22:02:38.228Z,13.83
2023-05-20T22:05:08.105Z,14.87
2023-05-20T22:07:36.220Z,13.23
2023-05-20T22:10:05.076Z,15.77
2023-05-20T22:12:35.816Z,14.27
2023-05-20T22:15:03.932Z,14.97
2023-05-20T22:17:33.965Z,15.23
2023-05-20T22:20:04.301Z,14.33
2023-05-20T22:22:35.676Z,15.30
2023-05-20T22:25:04.109Z,13.97
2023-05-20T22:27:32.480Z,15.17
2023-05-20T22:30:06.072Z,14.43
2023-05-20T22:32:34.112Z,14.73
2023-05-20T22:35:02.653Z,14.90
2023-05-20T22:37:30.806Z,16.37
2023-05-20T22:40:00.209Z,17.17
2023-05-20T22:42:28.284Z,17.03
2023-05-20T22:44:56.341Z,15.70
2023-05-20T22:47:24.875Z,15.70
2023-05-20T22:49:53.082Z,16.70
2023-05-20T22:52:25.211Z,16.23
2023-05-20T22:54:53.263Z,16.47
2023-05-20T22:57:22.791Z,15.60
2023-05-20T22:59:51.960Z,17.33
2023-05-20T23:02:20.194Z,15.67
2023-05-20T23:04:48.329Z,15.63
2023-05-20T23:07:19.381Z,15.80
2023-05-20T23:09:51.167Z,14.83
2023-05-20T23:12:19.650Z,15.77
2023-05-20T23:14:49.036Z,15.97
2023-05-20T23:17:17.181Z,15.97
2023-05-20T23:19:45.185Z,15.00
2023-05-20T23:22:14.028Z,14.77
2023-05-20T23:24:42.265Z,16.80
2023-05-20T23:27:13.141Z,16.17
2023-05-20T23:29:42.147Z,15.50
2023-05-20T23:32:11.921Z,15.30
2023-05-20T23:34:41.008Z,15.43
2023-05-20T23:37:08.986Z,14.73
2023-05-20T23:39:36.960Z,15.10
2023-05-20T23:42:05.402Z,15.57
2023-05-20T23:44:33.416Z,15.30
2023-05-20T23:47:03.700Z,14.97
2023-05-20T23:49:33.368Z,16.10
2023-05-20T23:52:02.533Z,14.53
2023-05-20T23:54:34.186Z,15.50
2023-05-20T23:57:02.275Z,14.57
2023-05-20T23:59:33.397Z,15.27
